Time;durP1;ratioP1;P1;durP2;ratioP2;P2;SDS_P1;SDS_P2;PMS_P1;PMS_P2;Temp;Humidity;BMP_temperature;BMP_pressure;BME280_temperature;BME280_humidity;BME280_pressure;Samples;Min_cycle;Max_cycle;Signal;HPM_P1;HPM_P2
2021/12/04 00:00:52;;;;;;;4.03;2.10;;;6.20;99.90;;;;;;5047399;28;20458;-70
2021/12/04 00:03:21;;;;;;;5.90;2.03;;;6.20;99.90;;;;;;5047839;28;20971;-70
2021/12/04 00:05:51;;;;;;;4.10;2.10;;;6.30;99.90;;;;;;5047940;28;20474;-70
2021/12/04 00:08:19;;;;;;;4.13;2.50;;;6.20;99.90;;;;;;5048617;28;20455;-70
2021/12/04 00:10:46;;;;;;;4.60;1.97;;;6.10;99.90;;;;;;5048063;28;20472;-69
2021/12/04 00:13:13;;;;;;;4.20;2.50;;;5.90;99.90;;;;;;5048564;28;20446;-71
2021/12/04 00:15:40;;;;;;;5.50;2.87;;;5.80;99.90;;;;;;5048121;28;20469;-70
2021/12/04 00:18:07;;;;;;;4.70;2.50;;;5.90;99.90;;;;;;5047498;28;20481;-70
2021/12/04 00:20:36;;;;;;;6.93;2.50;;;6.00;99.90;;;;;;5048923;28;20491;-71
2021/12/04 00:23:03;;;;;;;4.30;2.40;;;5.90;99.90;;;;;;5048135;28;20461;-69
2021/12/04 00:25:30;;;;;;;3.67;2.30;;;5.90;99.90;;;;;;5050015;28;20527;-70
2021/12/04 00:27:57;;;;;;;4.07;2.20;;;5.90;99.90;;;;;;5051031;28;20799;-70
2021/12/04 00:30:26;;;;;;;4.67;2.80;;;5.90;99.90;;;;;;5051900;28;20457;-68
2021/12/04 00:32:57;;;;;;;3.90;2.50;;;5.90;99.90;;;;;;5052039;28;20465;-70
2021/12/04 00:35:34;;;;;;;4.43;2.03;;;6.00;99.90;;;;;;5051872;28;20564;-69
2021/12/04 00:49:10;;;;;;;4.47;2.23;;;5.80;99.90;;;;;;5051764;28;20467;-69
2021/12/04 00:51:39;;;;;;;4.60;2.20;;;5.90;99.90;;;;;;5051030;28;21262;-68
2021/12/04 00:54:09;;;;;;;3.97;2.50;;;5.80;99.90;;;;;;5051727;28;21008;-69
2021/12/04 00:56:37;;;;;;;4.37;2.87;;;5.90;99.90;;;;;;5051070;28;20512;-70
2021/12/04 00:59:04;;;;;;;5.33;3.00;;;6.00;99.90;;;;;;5051633;28;20959;-70
2021/12/04 01:01:31;;;;;;;4.97;2.67;;;5.90;99.90;;;;;;5051056;28;20454;-70
2021/12/04 01:04:00;;;;;;;3.90;2.50;;;5.90;99.90;;;;;;5051170;28;20454;-69
2021/12/04 01:06:28;;;;;;;7.90;3.23;;;6.00;99.90;;;;;;5051183;28;20485;-70
2021/12/04 01:08:55;;;;;;;4.67;2.90;;;6.00;99.90;;;;;;5051642;28;20514;-70
2021/12/04 01:11:23;;;;;;;4.20;2.83;;;6.00;99.90;;;;;;5050906;28;21289;-70
2021/12/04 01:13:50;;;;;;;4.13;2.60;;;6.10;99.90;;;;;;5051301;28;20458;-70
2021/12/04 01:16:17;;;;;;;5.60;3.87;;;6.20;99.90;;;;;;5051299;28;20478;-69
2021/12/04 01:18:44;;;;;;;5.17;2.80;;;6.20;99.90;;;;;;5051272;28;20482;-70
2021/12/04 01:21:12;;;;;;;5.70;3.60;;;6.20;99.90;;;;;;5051427;28;20446;-68
2021/12/04 01:23:39;;;;;;;4.77;2.97;;;6.10;99.90;;;;;;5050647;28;20454;-68
2021/12/04 01:26:06;;;;;;;5.40;3.57;;;6.10;99.90;;;;;;5051037;28;20470;-69
2021/12/04 01:28:35;;;;;;;5.57;3.80;;;6.00;99.90;;;;;;5050680;28;20458;-69
2021/12/04 01:31:02;;;;;;;6.40;3.30;;;6.00;99.90;;;;;;5050613;28;20457;-69
2021/12/04 01:33:29;;;;;;;5.30;3.40;;;6.00;99.90;;;;;;5050897;28;20467;-70
2021/12/04 01:35:56;;;;;;;5.53;3.50;;;5.80;99.90;;;;;;5050585;28;20550;-70
2021/12/04 01:38:23;;;;;;;5.83;3.63;;;5.70;99.90;;;;;;5050232;28;20519;-69
2021/12/04 01:40:50;;;;;;;4.93;3.07;;;5.80;99.90;;;;;;5051004;28;20464;-70
2021/12/04 01:43:17;;;;;;;5.10;3.47;;;6.00;99.90;;;;;;5050932;28;20453;-70
2021/12/04 01:45:46;;;;;;;5.20;3.40;;;6.00;99.90;;;;;;5050522;28;20485;-70
2021/12/04 01:48:13;;;;;;;5.30;3.67;;;5.90;99.90;;;;;;5050319;28;20502;-69
2021/12/04 01:50:41;;;;;;;5.13;3.80;;;4.90;99.90;;;;;;5049727;28;20463;-70
2021/12/04 01:53:08;;;;;;;7.97;4.90;;;5.60;99.90;;;;;;5050289;28;20509;-70
2021/12/04 01:55:37;;;;;;;6.17;3.87;;;5.60;99.90;;;;;;5050768;28;20472;-70
2021/12/04 01:58:05;;;;;;;6.67;3.87;;;5.60;99.90;;;;;;5049985;28;20493;-70
2021/12/04 02:00:35;;;;;;;6.03;3.97;;;5.60;99.90;;;;;;5050708;28;20483;-69
2021/12/04 02:03:07;;;;;;;6.57;3.80;;;5.50;99.90;;;;;;5050240;28;20456;-70
2021/12/04 02:05:37;;;;;;;5.90;3.87;;;5.50;99.90;;;;;;5050389;28;20473;-69
2021/12/04 02:08:05;;;;;;;5.73;3.90;;;5.40;99.90;;;;;;5050372;28;20446;-71
2021/12/04 02:10:32;;;;;;;5.93;3.60;;;5.40;99.90;;;;;;5050788;28;21047;-71
2021/12/04 02:12:59;;;;;;;5.93;4.20;;;5.50;99.90;;;;;;5050147;28;20559;-70
2021/12/04 02:15:26;;;;;;;6.10;3.80;;;5.50;99.90;;;;;;5050541;28;20473;-71
2021/12/04 02:17:54;;;;;;;6.60;3.87;;;5.40;99.90;;;;;;5050458;28;20548;-70
2021/12/04 02:20:24;;;;;;;6.37;4.10;;;5.40;99.90;;;;;;5050073;28;20481;-69
2021/12/04 02:22:52;;;;;;;6.30;4.80;;;5.30;99.90;;;;;;5050422;28;20826;-70
2021/12/04 02:25:20;;;;;;;7.10;4.40;;;5.30;99.90;;;;;;5050207;28;20523;-70
2021/12/04 02:27:48;;;;;;;6.90;4.27;;;5.50;99.90;;;;;;5050505;28;20454;-70
2021/12/04 02:30:18;;;;;;;5.67;4.00;;;5.30;99.90;;;;;;5050374;28;20463;-69
2021/12/04 02:32:46;;;;;;;6.70;4.40;;;5.50;99.90;;;;;;5050021;28;20454;-70
2021/12/04 02:35:17;;;;;;;6.67;4.63;;;5.60;99.90;;;;;;5050263;28;20484;-70
2021/12/04 02:37:46;;;;;;;7.97;4.97;;;5.50;99.90;;;;;;5049812;28;20857;-69
2021/12/04 02:40:16;;;;;;;6.50;4.50;;;5.50;99.90;;;;;;5050171;28;20457;-69
2021/12/04 02:42:44;;;;;;;5.93;4.33;;;5.40;99.90;;;;;;5050147;28;20453;-69
2021/12/04 02:45:12;;;;;;;9.50;4.70;;;5.50;99.90;;;;;;5049795;28;20482;-68
2021/12/04 02:47:39;;;;;;;5.70;3.67;;;5.70;99.90;;;;;;5049370;28;20504;-69
2021/12/04 02:50:11;;;;;;;7.43;4.00;;;5.80;99.90;;;;;;5049272;28;20446;-69
2021/12/04 02:52:39;;;;;;;6.20;4.03;;;5.80;99.90;;;;;;5049311;28;20457;-69
2021/12/04 02:55:08;;;;;;;7.07;5.20;;;5.80;99.90;;;;;;5049263;28;21092;-70
2021/12/04 02:57:40;;;;;;;6.53;4.80;;;5.80;99.90;;;;;;5054247;28;20490;-69
2021/12/04 03:00:16;;;;;;;6.27;4.10;;;5.80;99.90;;;;;;5056368;28;20472;-70
2021/12/04 03:02:45;;;;;;;7.43;4.50;;;5.90;99.90;;;;;;5049480;28;20450;-70
2021/12/04 03:05:12;;;;;;;6.83;4.83;;;5.90;99.90;;;;;;5048629;28;20477;-70
2021/12/04 03:07:39;;;;;;;7.10;5.40;;;5.80;99.90;;;;;;5049295;28;20501;-70
2021/12/04 03:10:09;;;;;;;7.67;5.33;;;5.90;99.90;;;;;;5049411;28;20458;-69
2021/12/04 03:12:37;;;;;;;8.33;4.80;;;5.90;99.90;;;;;;5049110;28;20485;-70
2021/12/04 03:15:05;;;;;;;7.97;5.10;;;5.90;99.90;;;;;;5049389;28;20501;-69
2021/12/04 03:17:32;;;;;;;6.77;4.57;;;5.90;99.90;;;;;;5049532;28;20457;-69
2021/12/04 03:19:59;;;;;;;7.20;4.50;;;5.90;99.90;;;;;;5049434;28;20859;-70
2021/12/04 03:22:27;;;;;;;6.90;4.40;;;4.20;99.90;;;;;;5049542;28;20964;-70
2021/12/04 03:24:56;;;;;;;7.50;4.90;;;5.90;99.90;;;;;;5049072;28;20476;-70
2021/12/04 03:27:26;;;;;;;8.23;4.73;;;5.90;99.90;;;;;;5049571;28;20449;-70
2021/12/04 03:29:56;;;;;;;6.37;4.30;;;5.80;99.90;;;;;;5049514;28;20464;-69
2021/12/04 03:35:21;;;;;;;8.93;5.87;;;5.60;99.90;;;;;;5046885;28;20477;-70
2021/12/04 03:43:20;;;;;;;7.67;5.30;;;5.50;99.90;;;;;;5049495;28;20527;-70
2021/12/04 03:45:53;;;;;;;8.30;5.10;;;5.50;99.90;;;;;;5049201;28;20475;-69
2021/12/04 03:48:49;;;;;;;7.63;5.33;;;5.50;99.90;;;;;;5049148;28;20453;-70
2021/12/04 03:51:17;;;;;;;7.73;5.63;;;5.50;99.90;;;;;;5049412;28;20454;-70
2021/12/04 03:53:44;;;;;;;8.67;6.30;;;5.50;99.90;;;;;;5049429;28;21016;-70
2021/12/04 03:56:12;;;;;;;7.60;5.77;;;5.40;99.90;;;;;;5048923;28;20478;-70
2021/12/04 03:58:41;;;;;;;10.07;5.47;;;5.40;99.90;;;;;;5049950;28;20489;-70
2021/12/04 04:01:08;;;;;;;8.90;6.30;;;5.30;99.90;;;;;;5053036;28;20449;-69
2021/12/04 04:03:35;;;;;;;8.00;5.70;;;5.30;99.90;;;;;;5052570;28;20962;-70
2021/12/04 04:06:02;;;;;;;7.77;6.00;;;5.20;99.90;;;;;;5053053;28;20467;-70
2021/12/04 04:08:29;;;;;;;8.80;6.20;;;5.20;99.90;;;;;;5061041;28;20451;-69
2021/12/04 04:10:57;;;;;;;8.63;5.97;;;5.00;99.90;;;;;;5056661;28;20464;-70
2021/12/04 04:13:24;;;;;;;9.60;6.90;;;5.00;99.90;;;;;;5053070;28;20456;-70
2021/12/04 04:15:52;;;;;;;8.50;5.87;;;5.00;99.90;;;;;;5052996;28;20476;-69
2021/12/04 04:18:19;;;;;;;10.53;7.47;;;5.00;99.90;;;;;;5052688;28;20491;-69
2021/12/04 04:20:47;;;;;;;9.30;6.00;;;4.90;99.90;;;;;;5052726;28;20461;-69
2021/12/04 04:23:14;;;;;;;9.33;6.60;;;4.90;99.90;;;;;;5052509;28;20468;-69
2021/12/04 04:25:41;;;;;;;9.27;6.57;;;4.70;99.90;;;;;;5052107;28;20527;-69
2021/12/04 04:28:09;;;;;;;9.23;6.50;;;4.80;99.90;;;;;;5052599;28;20459;-69
2021/12/04 04:30:37;;;;;;;12.50;7.10;;;4.70;99.90;;;;;;5052518;28;20503;-69
2021/12/04 04:33:07;;;;;;;7.67;5.50;;;4.60;99.90;;;;;;5052420;28;20850;-70
2021/12/04 04:35:35;;;;;;;7.53;5.70;;;4.70;99.90;;;;;;5052465;28;20866;-69
2021/12/04 04:38:13;;;;;;;8.13;6.40;;;4.70;99.90;;;;;;5051852;28;20485;-69
2021/12/04 05:11:05;;;;;;;8.70;5.63;;;4.60;99.90;;;;;;5050751;28;20463;-69
2021/12/04 05:13:33;;;;;;;6.93;4.20;;;4.70;99.90;;;;;;5051679;28;20515;-69
2021/12/04 05:16:10;;;;;;;8.40;5.80;;;4.70;99.90;;;;;;5051240;28;20476;-68
2021/12/04 05:18:40;;;;;;;11.00;6.40;;;4.80;99.90;;;;;;5051598;28;20489;-68
2021/12/04 05:21:11;;;;;;;7.20;5.30;;;4.80;99.90;;;;;;5051747;28;20541;-66
2021/12/04 05:23:45;;;;;;;7.00;5.17;;;4.90;99.90;;;;;;5051441;28;20462;-69
2021/12/04 05:26:15;;;;;;;8.73;6.20;;;4.90;99.90;;;;;;5051178;28;20473;-70
2021/12/04 05:28:43;;;;;;;9.10;5.50;;;5.10;99.90;;;;;;5051643;28;20481;-70
2021/12/04 05:31:10;;;;;;;9.07;6.30;;;5.10;99.90;;;;;;5051587;28;20453;-69
2021/12/04 05:33:39;;;;;;;7.50;5.13;;;5.10;99.90;;;;;;5050891;28;20448;-69
2021/12/04 05:36:06;;;;;;;9.47;5.90;;;5.00;99.90;;;;;;5051533;28;21470;-70
2021/12/04 05:38:35;;;;;;;7.57;5.07;;;5.20;99.90;;;;;;5051178;28;20488;-68
2021/12/04 05:41:03;;;;;;;9.97;6.43;;;5.10;99.90;;;;;;5051225;28;20456;-68
2021/12/04 05:43:31;;;;;;;8.10;5.77;;;5.20;99.90;;;;;;5051337;28;20449;-70
2021/12/04 05:46:05;;;;;;;9.20;6.93;;;5.30;99.90;;;;;;5051201;28;20480;-68
2021/12/04 05:48:49;;;;;;;7.40;5.73;;;5.30;99.90;;;;;;5051201;28;20449;-68
2021/12/04 05:51:33;;;;;;;9.53;6.10;;;5.30;99.90;;;;;;5051052;28;20456;-69
2021/12/04 05:54:05;;;;;;;8.20;5.80;;;5.20;99.90;;;;;;5050912;28;20463;-69
2021/12/04 05:56:35;;;;;;;9.53;6.10;;;5.20;99.90;;;;;;5050938;28;20481;-70
2021/12/04 05:59:04;;;;;;;11.60;7.10;;;5.20;99.90;;;;;;5050840;28;20525;-73
2021/12/04 06:01:32;;;;;;;9.47;6.67;;;5.00;99.90;;;;;;5050820;28;20456;-69
2021/12/04 06:04:00;;;;;;;9.40;6.13;;;5.00;99.90;;;;;;5050458;28;20452;-71
2021/12/04 06:06:27;;;;;;;9.73;5.97;;;5.10;99.90;;;;;;5050700;28;20940;-68
2021/12/04 06:08:54;;;;;;;7.67;6.37;;;5.00;99.90;;;;;;5050307;28;20970;-69
2021/12/04 06:11:22;;;;;;;8.87;7.10;;;5.00;99.90;;;;;;5050186;28;21022;-70
2021/12/04 06:13:50;;;;;;;10.17;6.60;;;5.00;99.90;;;;;;5050421;28;20453;-69
2021/12/04 06:16:17;;;;;;;8.83;6.30;;;5.00;99.90;;;;;;5050397;28;20497;-69
2021/12/04 06:18:46;;;;;;;10.93;7.43;;;5.00;99.90;;;;;;5050253;28;20492;-69
2021/12/04 06:23:59;;;;;;;9.03;6.27;;;5.00;99.90;;;;;;5050565;28;20603;-69
2021/12/04 06:26:27;;;;;;;12.00;7.77;;;4.90;99.90;;;;;;5050258;28;20470;-69
2021/12/04 06:28:54;;;;;;;10.67;7.47;;;4.80;99.90;;;;;;5050376;28;20531;-69
2021/12/04 06:31:22;;;;;;;11.77;8.50;;;4.80;99.90;;;;;;5050227;28;20459;-69
2021/12/04 06:33:49;;;;;;;14.03;9.17;;;4.90;99.90;;;;;;5050287;28;20488;-68
2021/12/04 06:36:16;;;;;;;11.70;7.90;;;4.80;99.90;;;;;;5050288;28;20468;-69
2021/12/04 06:38:43;;;;;;;13.57;8.13;;;4.90;99.90;;;;;;5050494;28;20558;-69
2021/12/04 06:41:10;;;;;;;12.20;8.37;;;4.80;99.90;;;;;;5050072;28;20467;-69
2021/12/04 06:43:44;;;;;;;11.77;8.47;;;4.90;99.90;;;;;;5050351;28;20855;-71
2021/12/04 06:46:11;;;;;;;13.57;8.67;;;5.00;99.90;;;;;;5049547;28;21015;-71
2021/12/04 06:48:42;;;;;;;10.13;6.90;;;5.10;99.90;;;;;;5050121;28;20526;-70
2021/12/04 06:51:16;;;;;;;12.43;8.13;;;5.20;99.90;;;;;;5050166;28;20489;-69
2021/12/04 06:53:47;;;;;;;11.40;8.13;;;5.20;99.90;;;;;;5049851;28;20473;-70
2021/12/04 06:56:16;;;;;;;13.13;8.50;;;5.30;99.90;;;;;;5049864;28;20464;-70
2021/12/04 06:58:44;;;;;;;13.53;8.80;;;5.50;99.90;;;;;;5049995;28;20792;-72
2021/12/04 07:01:11;;;;;;;12.17;8.80;;;5.70;99.90;;;;;;5049973;28;20461;-70
2021/12/04 07:03:40;;;;;;;11.70;8.43;;;5.60;99.90;;;;;;5049673;28;20510;-70
2021/12/04 07:06:08;;;;;;;12.63;9.30;;;5.70;99.90;;;;;;5049478;28;21006;-70
2021/12/04 07:08:35;;;;;;;13.53;8.73;;;5.50;99.90;;;;;;5049483;28;20933;-70
2021/12/04 07:11:04;;;;;;;12.20;8.90;;;5.60;99.90;;;;;;5048984;28;20507;-70
2021/12/04 07:13:32;;;;;;;13.37;8.80;;;5.70;99.90;;;;;;5049647;28;20512;-70
2021/12/04 07:16:03;;;;;;;11.57;8.67;;;5.70;99.90;;;;;;5049545;28;21000;-71
2021/12/04 07:18:32;;;;;;;12.00;8.53;;;5.70;99.90;;;;;;5049520;28;20460;-74
2021/12/04 07:20:59;;;;;;;15.83;9.97;;;5.60;99.90;;;;;;5050719;28;20453;-83
2021/12/04 07:23:26;;;;;;;13.67;9.40;;;5.60;99.90;;;;;;5050367;28;20461;-81
2021/12/04 07:25:53;;;;;;;14.77;10.10;;;5.60;99.90;;;;;;5051974;28;20465;-77
2021/12/04 07:28:21;;;;;;;14.03;10.00;;;5.70;99.90;;;;;;5050086;28;20450;-69
2021/12/04 07:30:48;;;;;;;15.37;10.67;;;5.60;99.90;;;;;;5053866;28;20504;-82
2021/12/04 07:33:16;;;;;;;12.10;9.97;;;5.60;99.90;;;;;;5051371;28;20510;-81
2021/12/04 07:35:43;;;;;;;12.53;10.10;;;5.70;99.90;;;;;;5056049;28;20526;-74
2021/12/04 07:38:11;;;;;;;13.60;8.70;;;5.80;99.90;;;;;;5056154;28;20864;-75
2021/12/04 07:40:38;;;;;;;16.17;10.50;;;5.80;99.90;;;;;;5055694;28;20595;-77
2021/12/04 07:43:05;;;;;;;16.83;9.80;;;5.70;99.90;;;;;;5056236;28;20507;-80
2021/12/04 07:45:32;;;;;;;15.27;10.17;;;5.70;99.90;;;;;;5055682;28;20484;-72
2021/12/04 07:47:59;;;;;;;14.50;9.90;;;5.70;99.90;;;;;;5055783;28;20453;-71
2021/12/04 07:50:29;;;;;;;16.87;10.70;;;5.80;99.90;;;;;;5054534;28;20445;-73
2021/12/04 07:52:57;;;;;;;14.27;9.13;;;6.10;99.90;;;;;;5056242;28;20453;-76
2021/12/04 07:55:25;;;;;;;14.37;9.57;;;6.30;99.90;;;;;;5055982;28;20535;-74
2021/12/04 07:57:52;;;;;;;17.30;10.83;;;6.30;99.90;;;;;;5056460;28;20534;-67
2021/12/04 08:00:22;;;;;;;13.73;10.63;;;6.50;99.90;;;;;;5055464;28;20908;-72
2021/12/04 08:02:49;;;;;;;15.13;10.47;;;6.70;99.90;;;;;;5055939;28;20894;-71
2021/12/04 08:05:17;;;;;;;15.37;9.67;;;6.80;99.90;;;;;;5055313;28;20482;-69
2021/12/04 08:07:45;;;;;;;13.37;9.37;;;6.90;99.90;;;;;;5055712;28;20454;-72
2021/12/04 08:10:15;;;;;;;11.77;8.73;;;7.10;99.90;;;;;;5055667;28;20454;-71
2021/12/04 08:12:42;;;;;;;14.00;9.90;;;7.20;99.90;;;;;;5055428;28;20482;-70
2021/12/04 08:15:12;;;;;;;13.63;10.10;;;7.30;99.90;;;;;;5055592;28;20526;-73
2021/12/04 08:17:39;;;;;;;15.33;9.70;;;7.40;99.90;;;;;;5055667;28;20508;-71
2021/12/04 08:20:08;;;;;;;16.13;12.07;;;7.40;99.90;;;;;;5055735;28;20500;-71
2021/12/04 08:22:36;;;;;;;14.97;9.20;;;7.70;99.90;;;;;;5055725;28;20443;-70
2021/12/04 08:25:06;;;;;;;14.83;10.70;;;7.80;99.90;;;;;;5055425;28;20475;-69
2021/12/04 08:27:33;;;;;;;12.60;10.00;;;8.00;99.90;;;;;;5055530;28;20469;-72
2021/12/04 08:30:00;;;;;;;12.80;8.87;;;8.00;99.90;;;;;;5055327;28;20461;-69
2021/12/04 08:32:27;;;;;;;16.00;11.60;;;8.00;99.90;;;;;;5055575;28;20581;-71
2021/12/04 08:34:54;;;;;;;12.37;9.60;;;8.00;99.90;;;;;;5055292;28;20500;-72
2021/12/04 08:37:21;;;;;;;14.70;9.87;;;8.10;99.90;;;;;;5055173;28;20516;-72
2021/12/04 08:39:50;;;;;;;14.40;10.80;;;8.10;99.90;;;;;;5055224;28;20498;-71
2021/12/04 08:42:19;;;;;;;13.07;10.10;;;8.10;99.90;;;;;;5055556;28;20529;-73
2021/12/04 08:44:46;;;;;;;13.50;9.60;;;8.20;99.90;;;;;;5053883;28;20527;-71
2021/12/04 08:47:13;;;;;;;20.43;10.20;;;8.10;99.90;;;;;;5051782;28;20502;-70
2021/12/04 08:49:42;;;;;;;13.43;10.00;;;8.10;99.90;;;;;;5052354;28;20499;-73
2021/12/04 08:52:10;;;;;;;12.87;9.20;;;8.20;99.90;;;;;;5052379;28;20543;-73
2021/12/04 08:54:39;;;;;;;15.53;10.60;;;8.30;99.90;;;;;;5052007;28;20457;-71
2021/12/04 08:57:06;;;;;;;14.70;10.20;;;8.30;99.90;;;;;;5052343;28;20474;-73
2021/12/04 08:59:35;;;;;;;16.03;9.83;;;8.20;99.90;;;;;;5052069;28;20893;-69
2021/12/04 09:02:03;;;;;;;15.40;10.90;;;8.20;99.90;;;;;;5052273;28;20453;-73
2021/12/04 09:04:35;;;;;;;14.80;10.90;;;8.30;99.90;;;;;;5051588;28;20944;-68
2021/12/04 09:07:03;;;;;;;13.20;11.23;;;8.20;99.90;;;;;;5051601;28;20535;-68
2021/12/04 09:09:30;;;;;;;15.20;11.90;;;8.50;99.90;;;;;;5051521;28;21291;-65
2021/12/04 09:12:00;;;;;;;16.37;10.93;;;8.80;99.90;;;;;;5051410;28;20480;-72
2021/12/04 09:14:30;;;;;;;15.03;10.40;;;8.90;99.90;;;;;;5051721;28;20463;-70
2021/12/04 09:17:05;;;;;;;13.63;10.10;;;8.30;99.90;;;;;;5051746;28;20505;-69
2021/12/04 09:19:32;;;;;;;14.47;11.83;;;9.00;99.90;;;;;;5051597;28;20545;-72
2021/12/04 09:22:01;;;;;;;17.50;10.47;;;9.00;99.90;;;;;;5051370;28;20461;-71
2021/12/04 09:24:37;;;;;;;15.17;10.37;;;9.00;99.90;;;;;;5051716;28;20980;-66
2021/12/04 09:27:11;;;;;;;14.77;10.23;;;8.80;99.90;;;;;;5051571;28;21006;-69
2021/12/04 10:00:35;;;;;;;14.27;11.17;;;8.70;99.90;;;;;;5026898;28;20840;-70
2021/12/04 10:03:20;;;;;;;14.13;10.10;;;8.60;99.90;;;;;;5042559;28;20457;-71
2021/12/04 10:14:47;;;;;;;16.10;9.57;;;8.50;99.90;;;;;;5050851;28;20831;-69
2021/12/04 10:20:19;;;;;;;13.07;9.97;;;9.90;99.90;;;;;;5050519;28;20484;-67
2021/12/04 10:23:21;;;;;;;13.90;9.30;;;8.70;99.90;;;;;;5050376;28;20937;-69
2021/12/04 10:34:14;;;;;;;14.00;9.40;;;8.70;99.90;;;;;;5050356;28;20508;-69
2021/12/04 10:36:41;;;;;;;14.00;10.10;;;8.70;99.90;;;;;;5049981;28;20555;-68
2021/12/04 10:39:12;;;;;;;14.80;9.13;;;8.70;99.90;;;;;;5050211;28;20460;-69
2021/12/04 10:41:41;;;;;;;14.17;8.87;;;8.70;99.90;;;;;;5050000;28;20521;-68
2021/12/04 10:44:14;;;;;;;12.60;9.80;;;8.80;99.90;;;;;;5050235;28;20548;-68
2021/12/04 10:46:52;;;;;;;12.93;9.00;;;9.00;99.90;;;;;;5050220;28;20537;-68
2021/12/04 10:49:52;;;;;;;11.50;8.00;;;9.00;99.90;;;;;;5050040;28;20903;-68
2021/12/04 10:52:31;;;;;;;13.33;9.53;;;9.10;99.90;;;;;;5049982;28;20453;-68
2021/12/04 10:55:14;;;;;;;10.73;8.33;;;9.10;99.90;;;;;;5050057;28;20524;-69
2021/12/04 11:00:35;;;;;;;11.40;8.20;;;9.30;99.90;;;;;;5047678;28;20484;-70
2021/12/04 11:03:17;;;;;;;11.23;7.40;;;9.40;99.90;;;;;;5049784;28;20534;-67
2021/12/04 11:22:30;;;;;;;9.47;7.13;;;9.80;99.90;;;;;;5049469;28;20925;-68
2021/12/04 11:25:17;;;;;;;10.83;7.73;;;9.90;99.90;;;;;;5049125;28;20474;-68
2021/12/04 11:28:13;;;;;;;10.40;7.27;;;9.90;99.90;;;;;;5049516;28;20452;-68
2021/12/04 11:39:08;;;;;;;14.77;8.13;;;9.60;99.90;;;;;;5041499;28;21022;-69
2021/12/04 11:41:38;;;;;;;17.00;9.03;;;9.80;99.90;;;;;;5049367;28;20574;-68
2021/12/04 11:44:10;;;;;;;14.97;9.37;;;9.80;99.90;;;;;;5049193;28;20515;-69
2021/12/04 11:46:43;;;;;;;10.60;8.13;;;9.70;99.90;;;;;;5049130;28;21059;-68
2021/12/04 11:49:17;;;;;;;14.80;9.73;;;9.60;99.90;;;;;;5049203;28;20461;-68
2021/12/04 11:51:55;;;;;;;15.00;11.43;;;9.60;99.90;;;;;;5048993;28;20925;-67
2021/12/04 11:54:23;;;;;;;14.70;10.47;;;9.50;99.90;;;;;;5049142;28;20555;-67
2021/12/04 11:57:03;;;;;;;15.57;10.10;;;9.30;99.90;;;;;;5049156;28;20514;-68
2021/12/04 11:59:33;;;;;;;14.53;9.77;;;9.20;99.90;;;;;;5049210;28;20457;-68
2021/12/04 12:02:02;;;;;;;18.20;10.97;;;9.20;99.90;;;;;;5048944;28;20507;-67
2021/12/04 12:04:35;;;;;;;13.07;9.50;;;9.20;99.90;;;;;;5048883;28;20511;-69
2021/12/04 12:07:14;;;;;;;14.80;10.77;;;9.30;99.90;;;;;;5049113;28;20452;-68
2021/12/04 12:09:41;;;;;;;13.53;9.93;;;9.40;99.90;;;;;;5048628;28;20470;-69
2021/12/04 12:12:12;;;;;;;13.50;9.30;;;9.40;99.90;;;;;;5048501;28;21019;-68
2021/12/04 12:14:47;;;;;;;14.63;10.07;;;9.40;99.90;;;;;;5048848;28;20464;-67
2021/12/04 12:17:17;;;;;;;13.30;9.20;;;9.50;99.90;;;;;;5048578;28;20487;-68
2021/12/04 12:19:51;;;;;;;15.80;9.67;;;9.40;99.90;;;;;;5049865;28;20511;-67
2021/12/04 12:22:36;;;;;;;13.73;9.73;;;9.50;99.90;;;;;;5052698;28;20464;-67
2021/12/04 12:31:43;;;;;;;15.63;10.40;;;9.40;99.90;;;;;;5050228;28;20449;-68
2021/12/04 12:33:39;;;;;;;15.70;11.17;;;9.20;99.90;;;;;;5052443;28;20440;-68
2021/12/04 12:36:09;;;;;;;14.10;10.30;;;9.10;99.90;;;;;;5052612;28;20480;-69
2021/12/04 12:38:50;;;;;;;15.37;11.20;;;9.20;99.90;;;;;;5052600;28;20459;-67
2021/12/04 12:41:23;;;;;;;17.90;11.70;;;9.20;99.90;;;;;;5052557;28;20485;-67
2021/12/04 12:43:58;;;;;;;17.93;11.50;;;9.30;99.90;;;;;;5052191;28;20919;-69
2021/12/04 12:46:39;;;;;;;14.83;10.60;;;9.40;99.90;;;;;;5052326;28;20619;-68
2021/12/04 12:49:19;;;;;;;14.97;11.03;;;9.50;99.90;;;;;;5052226;28;20468;-67
2021/12/04 12:51:54;;;;;;;17.23;12.37;;;9.60;99.90;;;;;;5052382;28;20457;-68
2021/12/04 12:54:26;;;;;;;20.27;13.07;;;9.30;99.90;;;;;;5052145;28;20469;-68
2021/12/04 12:57:01;;;;;;;15.93;11.07;;;9.30;99.90;;;;;;5051839;28;20489;-68
2021/12/04 12:59:38;;;;;;;18.60;12.50;;;9.20;99.90;;;;;;5052218;28;20452;-68
2021/12/04 13:13:27;;;;;;;15.23;10.43;;;9.30;99.90;;;;;;5051702;28;20452;-69
2021/12/04 13:16:00;;;;;;;14.20;10.57;;;9.50;99.90;;;;;;5051838;28;20479;-68
2021/12/04 13:18:30;;;;;;;15.57;10.60;;;9.30;99.90;;;;;;5051882;28;20480;-70
2021/12/04 13:21:01;;;;;;;15.50;11.73;;;9.30;99.90;;;;;;5051748;28;20489;-71
2021/12/04 13:23:29;;;;;;;15.53;10.07;;;9.30;99.90;;;;;;5051449;28;20454;-69
2021/12/04 13:25:58;;;;;;;14.87;10.70;;;9.30;99.90;;;;;;5051236;28;20831;-67
2021/12/04 13:28:29;;;;;;;15.10;9.93;;;9.40;99.90;;;;;;5051744;28;20457;-69
2021/12/04 13:30:58;;;;;;;14.03;10.37;;;9.40;99.90;;;;;;5051338;28;20448;-68
2021/12/04 13:33:25;;;;;;;18.13;11.47;;;9.40;99.90;;;;;;5051539;28;20961;-70
2021/12/04 13:35:54;;;;;;;15.90;10.77;;;9.40;99.90;;;;;;5050914;28;20528;-69
2021/12/04 13:38:22;;;;;;;14.40;10.70;;;9.40;99.90;;;;;;5051115;28;20463;-68
2021/12/04 13:40:50;;;;;;;14.53;10.20;;;9.50;99.90;;;;;;5051254;28;20547;-67
2021/12/04 13:43:19;;;;;;;15.07;11.00;;;9.60;99.90;;;;;;5051178;28;20511;-71
2021/12/04 13:45:55;;;;;;;17.70;11.80;;;9.60;99.90;;;;;;5051413;28;20604;-68
2021/12/04 13:48:22;;;;;;;16.50;11.90;;;9.40;99.90;;;;;;5051125;28;20518;-69
2021/12/04 13:50:49;;;;;;;17.73;11.57;;;9.30;99.90;;;;;;5050903;28;20457;-66
2021/12/04 13:53:22;;;;;;;17.00;10.97;;;9.30;99.90;;;;;;5051039;28;20452;-68
2021/12/04 13:55:52;;;;;;;16.93;11.83;;;9.30;99.90;;;;;;5050898;28;20472;-69
2021/12/04 13:58:20;;;;;;;18.97;12.70;;;9.40;99.90;;;;;;5050891;28;20453;-68
2021/12/04 14:00:47;;;;;;;17.20;11.13;;;9.30;99.90;;;;;;5050416;28;20502;-68
2021/12/04 14:03:19;;;;;;;17.93;12.10;;;9.30;99.90;;;;;;5050855;28;20836;-68
2021/12/04 14:05:46;;;;;;;16.97;10.20;;;9.30;99.90;;;;;;5050739;28;20489;-68
2021/12/04 14:08:13;;;;;;;17.40;11.43;;;9.20;99.90;;;;;;5050856;28;20472;-67
2021/12/04 14:10:44;;;;;;;17.97;12.03;;;9.00;99.90;;;;;;5050116;28;20809;-68
2021/12/04 14:13:13;;;;;;;16.27;11.30;;;8.80;99.90;;;;;;5050334;28;20489;-68
2021/12/04 14:15:44;;;;;;;17.30;12.47;;;8.80;99.90;;;;;;5050725;28;20502;-66
2021/12/04 14:18:14;;;;;;;17.00;11.10;;;9.00;99.90;;;;;;5050665;28;20456;-67
2021/12/04 14:20:43;;;;;;;22.63;11.67;;;8.80;99.90;;;;;;5050227;28;20993;-67
2021/12/04 14:23:11;;;;;;;21.07;15.63;;;9.00;99.90;;;;;;5050547;28;20457;-70
2021/12/04 14:25:44;;;;;;;18.77;12.57;;;9.00;99.90;;;;;;5050256;28;20508;-68
2021/12/04 14:28:14;;;;;;;17.40;12.43;;;9.10;99.90;;;;;;5050248;28;20822;-68
2021/12/04 14:30:45;;;;;;;15.90;12.67;;;9.10;99.90;;;;;;5050546;28;20507;-68
2021/12/04 14:33:16;;;;;;;18.00;13.90;;;9.10;99.90;;;;;;5050341;28;20790;-69
2021/12/04 14:35:45;;;;;;;17.13;13.10;;;9.10;99.90;;;;;;5050244;28;20975;-70
2021/12/04 14:38:16;;;;;;;23.67;13.70;;;9.10;99.90;;;;;;5049863;28;21007;-69
2021/12/04 14:40:46;;;;;;;17.90;12.17;;;9.10;99.90;;;;;;5050050;28;20551;-69
2021/12/04 14:43:18;;;;;;;21.47;13.47;;;9.10;99.90;;;;;;5049077;28;20584;-68
2021/12/04 14:45:48;;;;;;;22.60;14.50;;;9.10;99.90;;;;;;5050164;28;20472;-70
2021/12/04 14:48:18;;;;;;;23.37;16.80;;;9.10;99.90;;;;;;5050160;28;20593;-68
2021/12/04 14:50:49;;;;;;;20.33;14.00;;;8.90;99.90;;;;;;5049774;28;20457;-68
2021/12/04 14:53:19;;;;;;;22.77;14.40;;;8.80;99.90;;;;;;5049971;28;20460;-70
2021/12/04 14:55:49;;;;;;;25.70;17.03;;;8.70;99.90;;;;;;5049375;28;21001;-69
2021/12/04 14:58:20;;;;;;;25.40;15.80;;;8.50;99.90;;;;;;5049878;28;20453;-70
2021/12/04 15:00:49;;;;;;;22.30;16.33;;;8.50;99.90;;;;;;5050021;28;21230;-68
2021/12/04 15:03:18;;;;;;;24.70;17.20;;;8.40;99.90;;;;;;5049722;28;20513;-68
2021/12/04 15:05:47;;;;;;;22.97;16.40;;;8.30;99.90;;;;;;5048030;28;20541;-71
2021/12/04 15:08:17;;;;;;;28.20;15.73;;;8.10;99.90;;;;;;5049723;28;20512;-71
2021/12/04 15:10:48;;;;;;;30.90;16.60;;;8.10;99.90;;;;;;5049209;28;20492;-71
2021/12/04 15:13:25;;;;;;;27.30;16.03;;;8.10;99.90;;;;;;5049199;28;20555;-72
2021/12/04 15:15:53;;;;;;;22.70;15.20;;;8.10;99.90;;;;;;5049318;28;20475;-74
2021/12/04 15:18:24;;;;;;;27.50;16.77;;;8.20;99.90;;;;;;5049582;28;20936;-74
2021/12/04 15:20:58;;;;;;;27.33;16.50;;;8.20;99.90;;;;;;5049338;28;21051;-74
2021/12/04 15:23:28;;;;;;;27.30;17.23;;;8.20;99.90;;;;;;5045948;28;20461;-70
2021/12/04 15:26:00;;;;;;;24.83;16.37;;;8.20;99.90;;;;;;5048160;28;20521;-70
2021/12/04 15:28:31;;;;;;;23.50;16.80;;;8.30;99.90;;;;;;5049462;28;20444;-74
2021/12/04 15:31:01;;;;;;;26.30;17.37;;;8.30;99.90;;;;;;5049309;28;20458;-68